Sheridan, WY

6:27 PM MDT on August 22, 2014 (GMT -0600)
North Airport Area | Change Station
CLOSE
Current Station
Personal Weather Station
Location: Sheridan, WY
Elevation: 3917 ft
Nearby Weather Stations

Elev 3917 ft 44.78 °N, 106.97 °W | Updated 45 minutes ago

Overcast
Overcast
70.7 °F
Feels Like 76 °F
N
3.7
Wind Variable Wind from NNW

Today
High -- | Low -- °F
--% Chance of Precip.
Yesterday
High -- | Low -- °F
Precip. -- in
6:18 AM 8:02 PM
Waning Crescent, 6% visible
Pressure 29.92 in
Visibility 10.0 miles
Clouds Mostly Cloudy 3200 ft
Overcast 4100 ft
Heat Index 76 °F
Dew Point 57 °F
Humidity 62%
Rainfall 0.00 in
Snow Depth Not available.
UV 1 out of 12
Pollen 6.70 out of 12
Air Quality Not available.
Flu Activity Not available.
METAR KSHR 222353Z AUTO 34006KT 10SM BKN032 OVC041 21/13 A3000 RMK AO2 SLP131 60000 T02060133 10228 20183 57006

More Conditions Fewer Conditions

Pressure 29.92 in
Visibility 10.0 miles
Clouds Mostly Cloudy 3200 ft
Overcast 4100 ft
Heat Index 76 °F
Dew Point 57 °F
Humidity 62%
Rainfall 0.00 in
Snow Depth Not available.
UV 1 out of 12
Pollen 6.70 out of 12
Air Quality Not available.
Flu Activity Not available.
METAR KSHR 222353Z AUTO 34006KT 10SM BKN032 OVC041 21/13 A3000 RMK AO2 SLP131 60000 T02060133 10228 20183 57006

More Conditions Fewer Conditions

10-Day Weather Forecast

Almanac

Astronomy

Aug. 22, 2014 Rise Set
Actual Time 6:18 AM MDT 8:02 PM MDT
Civil Twilight 5:47 AM MDT 8:33 PM MDT
Nautical Twilight 5:09 AM MDT 9:10 PM MDT
Astronomical Twilight 4:28 AM MDT 9:51 PM MDT
Moon 3:40 AM MDT (8/22) 6:14 PM MDT (8/22)
Length of Visible Light 14h 45m
Length of Day
13h 43m
Tomorrow will be 2m 54s shorter.
Waning Crescent, 6% of the Moon is Illuminated
Today
Waning Crescent
Aug 25
New
Sep 2
First Quarter
Sep 8
Full
Sep 15
Last Quarter

Today's Extremes

State Highs State Lows

Community

WunderPhotos

Upload Photos

1,746,318 photos uploaded!

WunderBlogs® & News

By Dr. Jeff Masters
Director of Meteorology, Weather Underground
By Kari Strenfel
Meteorologist, Weather Underground
By Christopher C. Burt
Weather Historian, Weather Underground
August 22, 2014
August 22, 2014
August 22, 2014

Nearby

Snow Depth

Station Depth Elevation
Bald Mountain 0 in 9380 ft
Beartooth Lake 0 in 9275 ft
Casper Mountain 0 in 7850 ft
Base Camp 0 in 7030 ft
Gros Ventre Summit 0 in 8750 ft

Earthquake Activity

City Distance Mag. Time & Date
No recent earthquake activity has been reported nearby.
Minimum magnitude displayed is 2.5.

Coastal Water Temperatures

Place Temperature
No Stations Reporting

Nearby Weather Stations